Archival Weather

Abadan

Abadan, Iran (OIAA)

Report from: Thursday, September 21, 2023 9:00 AM UTC
Current time: Sunday, February 25, 2024 9:03 PM UTC

Current weather – Weather history – Daily summaries
Weather forecast

Temperature42.0°C (107.6°F)
Heat index39.1°C (102.3°F)
Dew point4.0°C (39.2°F)
Winds 10 kts (5.1 m/s, 11.5 mph) Northwest (320°)
Clouds Sky clear
Altimeter29.71 in.Hg (1006 mB)
Relative humidity10 %
Density altitude3,387 ft. (1,032 m)
Remarks Ceiling and visibility OK
Flight conditions Visual Meteorological Conditions
Raw dataOIAA 210900Z 32010KT CAVOK 42/04 Q1006
An error has occurred. This application may no longer respond until reloaded. Reload 🗙